createdAt,value
2019-03-19T00:02:17.634Z,2.53
2019-03-19T00:04:45.892Z,1.60
2019-03-19T00:07:14.169Z,2.40
2019-03-19T00:09:42.481Z,3.03
2019-03-19T00:12:10.744Z,2.13
2019-03-19T00:14:39.053Z,2.87
2019-03-19T00:17:07.657Z,4.23
2019-03-19T00:19:35.922Z,3.30
2019-03-19T00:22:04.188Z,2.90
2019-03-19T00:24:32.439Z,3.13
2019-03-19T00:27:00.698Z,2.23
2019-03-19T00:29:28.950Z,1.67
2019-03-19T00:31:57.513Z,2.43
2019-03-19T00:34:25.778Z,1.57
2019-03-19T00:36:54.039Z,2.60
2019-03-19T00:39:22.299Z,1.47
2019-03-19T00:41:50.557Z,1.73
2019-03-19T00:44:18.818Z,2.10
2019-03-19T00:46:47.101Z,3.33
2019-03-19T00:49:15.354Z,1.80
2019-03-19T00:51:43.617Z,2.77
2019-03-19T00:54:11.861Z,1.13
2019-03-19T00:56:40.142Z,3.13
2019-03-19T00:59:08.402Z,1.30
2019-03-19T01:01:38.805Z,2.73
2019-03-19T01:04:07.267Z,2.07
2019-03-19T01:06:35.554Z,3.03
2019-03-19T01:09:05.641Z,4.97
2019-03-19T01:11:33.972Z,1.80
2019-03-19T01:14:02.227Z,2.43
2019-03-19T01:16:30.727Z,2.37
2019-03-19T01:18:58.984Z,1.67
2019-03-19T01:21:27.238Z,1.40
2019-03-19T01:23:55.905Z,1.53
2019-03-19T01:26:24.157Z,2.20
2019-03-19T01:28:52.421Z,1.50
2019-03-19T01:31:20.695Z,1.37
2019-03-19T01:33:49.046Z,1.63
2019-03-19T01:36:17.298Z,1.50
2019-03-19T01:38:45.557Z,3.00
2019-03-19T01:41:14.378Z,2.17
2019-03-19T01:43:42.645Z,1.97
2019-03-19T01:46:10.902Z,0.73
2019-03-19T01:48:39.178Z,1.37
2019-03-19T01:51:07.436Z,0.73
2019-03-19T01:53:35.695Z,1.73
2019-03-19T01:56:05.550Z,1.20
2019-03-19T01:58:34.095Z,1.03
2019-03-19T02:01:02.344Z,1.50
2019-03-19T02:03:30.610Z,1.00
2019-03-19T02:05:58.862Z,1.60
2019-03-19T02:08:27.415Z,0.90
2019-03-19T02:10:55.669Z,1.60
2019-03-19T02:13:24.000Z,1.70
2019-03-19T02:15:52.271Z,2.70
2019-03-19T02:18:20.539Z,1.87
2019-03-19T02:20:48.795Z,1.53
2019-03-19T02:23:17.057Z,2.43
2019-03-19T02:25:45.310Z,2.13
2019-03-19T02:28:13.624Z,1.23
2019-03-19T02:30:41.944Z,1.50
2019-03-19T02:33:10.203Z,2.07
2019-03-19T02:35:39.127Z,1.03
2019-03-19T02:38:08.623Z,1.47
2019-03-19T02:40:36.966Z,1.60
2019-03-19T02:43:05.221Z,2.57
2019-03-19T02:45:33.572Z,1.20
2019-03-19T02:48:01.823Z,0.93
2019-03-19T02:50:30.106Z,0.77
2019-03-19T02:52:58.437Z,0.80
2019-03-19T02:55:26.693Z,0.70
2019-03-19T02:57:55.027Z,0.63
2019-03-19T03:00:23.302Z,0.87
2019-03-19T03:02:51.655Z,1.33
2019-03-19T03:05:22.865Z,1.47
2019-03-19T03:07:51.119Z,1.17
2019-03-19T03:10:19.388Z,1.27
2019-03-19T03:12:47.972Z,3.27
2019-03-19T03:15:16.348Z,0.90
2019-03-19T03:17:44.671Z,1.33
2019-03-19T03:20:16.234Z,1.03
2019-03-19T03:22:44.557Z,0.90
2019-03-19T03:25:16.668Z,0.40
2019-03-19T03:27:45.113Z,1.33
2019-03-19T03:30:15.680Z,1.27
2019-03-19T03:32:44.013Z,0.60
2019-03-19T03:35:12.294Z,0.70
2019-03-19T03:37:40.624Z,1.80
2019-03-19T03:40:11.914Z,0.97
2019-03-19T03:42:42.809Z,0.20
2019-03-19T03:45:15.199Z,0.63
2019-03-19T03:47:43.527Z,0.60
2019-03-19T03:50:15.712Z,0.70
2019-03-19T03:52:43.971Z,0.93
2019-03-19T03:55:13.272Z,1.53
2019-03-19T03:57:41.542Z,0.87
2019-03-19T04:00:23.210Z,0.97
2019-03-19T04:02:51.463Z,0.77
2019-03-19T04:05:19.737Z,1.30
2019-03-19T04:07:48.065Z,0.70
2019-03-19T04:10:18.327Z,1.57
2019-03-19T04:12:46.669Z,0.87
2019-03-19T04:15:15.855Z,0.77
2019-03-19T04:17:44.151Z,1.00
2019-03-19T04:20:14.651Z,1.23
2019-03-19T04:22:42.939Z,0.57
2019-03-19T04:25:11.319Z,0.97
2019-03-19T04:27:40.638Z,0.90
2019-03-19T04:30:20.127Z,1.07
2019-03-19T04:32:48.442Z,1.00
2019-03-19T04:35:16.730Z,1.00
2019-03-19T04:37:45.022Z,1.47
2019-03-19T04:40:14.075Z,0.63
2019-03-19T04:42:42.505Z,1.10
2019-03-19T04:45:13.237Z,0.43
2019-03-19T04:47:41.511Z,0.83
2019-03-19T04:50:13.709Z,0.73
2019-03-19T04:52:41.987Z,0.63
2019-03-19T04:55:12.546Z,0.90
2019-03-19T04:57:40.807Z,0.80
2019-03-19T05:00:11.329Z,0.70
2019-03-19T05:02:39.586Z,0.53
2019-03-19T05:05:09.884Z,1.47
2019-03-19T05:07:38.231Z,0.77
2019-03-19T05:10:17.314Z,1.07
2019-03-19T05:12:45.579Z,1.23
2019-03-19T05:15:14.174Z,0.47
2019-03-19T05:17:42.455Z,0.60
2019-03-19T05:20:17.903Z,0.77
2019-03-19T05:22:46.214Z,5.47
2019-03-19T05:25:14.474Z,4.53
2019-03-19T05:27:42.738Z,10.10
2019-03-19T05:30:19.148Z,11.33
2019-03-19T05:32:47.418Z,6.80
2019-03-19T05:35:15.759Z,9.87
2019-03-19T05:37:44.014Z,5.17
2019-03-19T05:40:14.431Z,9.77
2019-03-19T05:42:42.717Z,8.90
2019-03-19T05:45:13.186Z,8.07
2019-03-19T05:47:41.462Z,9.13
2019-03-19T05:50:12.595Z,11.30
2019-03-19T05:52:41.023Z,8.13
2019-03-19T05:55:30.331Z,8.33
2019-03-19T05:57:58.593Z,9.57
2019-03-19T06:00:34.756Z,8.80
2019-03-19T06:03:03.020Z,10.03
2019-03-19T06:05:31.287Z,14.30
2019-03-19T06:07:59.629Z,13.73
2019-03-19T06:10:27.905Z,38.13
2019-03-19T06:12:56.167Z,29.87
2019-03-19T06:15:24.443Z,25.10
2019-03-19T06:17:52.701Z,10.20
2019-03-19T06:20:21.214Z,10.97
2019-03-19T06:22:49.480Z,23.97
2019-03-19T06:25:17.811Z,14.80
2019-03-19T06:27:46.166Z,14.87
2019-03-19T06:30:22.566Z,11.43
2019-03-19T06:32:50.877Z,9.23
2019-03-19T06:35:19.147Z,11.50
2019-03-19T06:37:47.670Z,10.87
2019-03-19T06:40:19.762Z,13.73
2019-03-19T06:42:48.099Z,9.30
2019-03-19T06:45:17.023Z,11.17
2019-03-19T06:47:45.282Z,11.50
2019-03-19T06:50:17.306Z,8.07
2019-03-19T06:52:45.579Z,15.30
2019-03-19T06:55:17.601Z,10.67
2019-03-19T06:57:45.921Z,10.40
2019-03-19T07:00:23.163Z,11.30
2019-03-19T07:02:51.417Z,13.03
2019-03-19T07:05:22.661Z,9.97
2019-03-19T07:07:50.930Z,9.07
2019-03-19T07:10:22.242Z,8.27
2019-03-19T07:12:50.516Z,9.20
2019-03-19T07:15:19.816Z,8.80
2019-03-19T07:17:48.083Z,7.90
2019-03-19T07:20:24.205Z,9.33
2019-03-19T07:22:52.482Z,10.20
2019-03-19T07:25:21.152Z,7.60
2019-03-19T07:27:49.426Z,5.33
2019-03-19T07:30:22.570Z,5.57
2019-03-19T07:32:50.834Z,5.10
2019-03-19T07:35:19.098Z,6.03
2019-03-19T07:37:47.371Z,6.80
2019-03-19T07:40:16.491Z,6.67
2019-03-19T07:42:44.826Z,5.73
2019-03-19T07:45:18.350Z,9.90
2019-03-19T07:47:46.637Z,5.73
2019-03-19T07:50:19.066Z,7.43
2019-03-19T07:52:47.351Z,5.00
2019-03-19T07:55:15.608Z,7.57
2019-03-19T07:57:43.915Z,6.23
2019-03-19T08:00:21.839Z,8.63
2019-03-19T08:02:50.120Z,7.97
2019-03-19T08:05:18.386Z,4.17
2019-03-19T08:07:46.661Z,5.93
2019-03-19T08:10:19.449Z,5.77
2019-03-19T08:12:47.722Z,6.70
2019-03-19T08:15:19.206Z,5.27
2019-03-19T08:17:47.489Z,6.30
2019-03-19T08:20:16.475Z,3.77
2019-03-19T08:22:44.759Z,3.13
2019-03-19T08:25:13.914Z,6.33
2019-03-19T08:27:42.207Z,3.87
2019-03-19T08:30:15.939Z,4.83
2019-03-19T08:32:44.210Z,5.33
2019-03-19T08:35:12.467Z,5.00
2019-03-19T08:37:40.738Z,4.80
2019-03-19T08:40:15.130Z,4.20
2019-03-19T08:42:43.417Z,6.60
2019-03-19T08:45:22.684Z,2.47
2019-03-19T08:47:50.960Z,4.97
2019-03-19T08:50:21.310Z,3.63
2019-03-19T08:52:49.596Z,2.83
2019-03-19T08:55:17.857Z,3.40
2019-03-19T08:57:46.129Z,3.13
2019-03-19T09:00:21.420Z,5.53
2019-03-19T09:02:49.700Z,2.13
2019-03-19T09:05:17.959Z,3.77
2019-03-19T09:07:46.302Z,2.27
2019-03-19T09:10:16.949Z,3.20
2019-03-19T09:12:45.223Z,2.80
2019-03-19T09:15:20.924Z,4.30
2019-03-19T09:17:49.192Z,4.13
2019-03-19T09:20:18.188Z,4.27
2019-03-19T09:22:46.465Z,4.43
2019-03-19T09:25:14.714Z,2.90
2019-03-19T09:27:42.978Z,4.00
2019-03-19T09:30:18.904Z,2.43
2019-03-19T09:32:47.174Z,3.17
2019-03-19T09:35:15.423Z,2.30
2019-03-19T09:37:44.759Z,3.53
2019-03-19T09:40:20.670Z,2.97
2019-03-19T09:42:48.938Z,2.73
2019-03-19T09:45:17.937Z,2.17
2019-03-19T09:47:46.466Z,3.57
2019-03-19T09:50:17.434Z,3.30
2019-03-19T09:52:45.685Z,2.67
2019-03-19T09:55:14.303Z,3.27
2019-03-19T09:57:42.566Z,2.17
2019-03-19T10:00:18.305Z,2.80
2019-03-19T10:02:46.583Z,1.90
2019-03-19T10:05:14.854Z,2.33
2019-03-19T10:07:43.578Z,1.93
2019-03-19T10:10:23.094Z,2.77
2019-03-19T10:12:51.490Z,2.73
2019-03-19T10:15:19.757Z,2.43
2019-03-19T10:17:48.258Z,2.30
2019-03-19T10:20:21.527Z,2.37
2019-03-19T10:22:49.791Z,1.67
2019-03-19T10:25:18.063Z,4.07
2019-03-19T10:27:46.315Z,1.47
2019-03-19T10:30:22.402Z,2.10
2019-03-19T10:32:50.686Z,2.53
2019-03-19T10:35:19.014Z,1.93
2019-03-19T10:37:47.273Z,4.87
2019-03-19T10:40:16.921Z,4.23
2019-03-19T10:42:45.206Z,4.03
2019-03-19T10:45:14.926Z,2.00
2019-03-19T10:47:43.263Z,2.27
2019-03-19T10:50:17.578Z,1.30
2019-03-19T10:52:45.847Z,4.03
2019-03-19T10:55:14.126Z,2.47
2019-03-19T10:57:42.537Z,2.33
2019-03-19T11:00:20.224Z,1.43
2019-03-19T11:02:48.487Z,2.23
2019-03-19T11:05:16.982Z,2.47
2019-03-19T11:07:45.242Z,2.73
2019-03-19T11:10:16.733Z,1.67
2019-03-19T11:12:44.978Z,0.90
2019-03-19T11:15:17.638Z,1.87
2019-03-19T11:17:45.895Z,1.50
2019-03-19T11:20:19.710Z,1.63
2019-03-19T11:22:47.982Z,1.50
2019-03-19T11:25:29.587Z,1.77
2019-03-19T11:27:57.914Z,2.10
2019-03-19T11:30:30.267Z,1.67
2019-03-19T11:32:58.515Z,2.13
2019-03-19T11:35:26.793Z,1.90
2019-03-19T11:37:55.038Z,1.60
2019-03-19T11:40:25.583Z,2.60
2019-03-19T11:42:53.288Z,1.50
2019-03-19T11:45:22.502Z,1.93
2019-03-19T11:47:50.896Z,1.80
2019-03-19T11:50:23.434Z,2.53
2019-03-19T11:52:51.767Z,1.27
2019-03-19T11:55:20.102Z,1.30
2019-03-19T11:57:48.358Z,1.60
2019-03-19T12:00:33.717Z,2.53
2019-03-19T12:03:12.242Z,6.90
2019-03-19T12:05:32.037Z,2.07
2019-03-19T12:08:00.300Z,2.23
2019-03-19T12:10:28.566Z,3.07
2019-03-19T12:12:56.824Z,1.00
2019-03-19T12:15:25.122Z,2.20
2019-03-19T12:17:53.378Z,4.30
2019-03-19T12:20:21.643Z,3.10
2019-03-19T12:22:49.917Z,16.70
2019-03-19T12:25:18.187Z,20.83
2019-03-19T12:27:46.454Z,9.30
2019-03-19T12:30:22.278Z,7.20
2019-03-19T12:32:47.410Z,10.80
2019-03-19T12:35:16.726Z,6.33
2019-03-19T12:37:45.259Z,5.37
2019-03-19T12:40:23.542Z,11.77
2019-03-19T12:42:51.894Z,9.63
2019-03-19T12:45:23.942Z,28.70
2019-03-19T12:47:52.219Z,71.30
2019-03-19T12:50:25.522Z,27.20
2019-03-19T12:52:53.786Z,15.33
2019-03-19T12:55:22.231Z,8.83
2019-03-19T12:57:50.560Z,13.17
2019-03-19T13:00:34.268Z,14.17
2019-03-19T13:02:55.944Z,11.30
2019-03-19T13:05:24.223Z,15.03
2019-03-19T13:07:52.490Z,16.77
2019-03-19T13:10:21.790Z,20.17
2019-03-19T13:12:50.061Z,15.27
2019-03-19T13:15:19.387Z,13.33
2019-03-19T13:17:47.929Z,14.43
2019-03-19T13:20:18.609Z,14.17
2019-03-19T13:22:46.873Z,12.77
2019-03-19T13:25:17.156Z,14.63
2019-03-19T13:27:45.427Z,16.40
2019-03-19T13:30:16.491Z,10.57
2019-03-19T13:32:44.767Z,10.50
2019-03-19T13:35:13.032Z,9.77
2019-03-19T13:37:41.302Z,8.70
2019-03-19T13:40:12.823Z,13.07
2019-03-19T13:42:41.107Z,10.00
2019-03-19T13:45:12.288Z,8.43
2019-03-19T13:47:40.899Z,12.73
2019-03-19T13:50:11.330Z,11.70
2019-03-19T13:52:39.594Z,10.70
2019-03-19T13:55:10.603Z,14.10
2019-03-19T13:57:38.859Z,11.43
2019-03-19T14:00:10.226Z,16.63
2019-03-19T14:02:38.518Z,15.40
2019-03-19T14:05:08.830Z,8.27
2019-03-19T14:07:37.095Z,11.70
2019-03-19T14:10:14.423Z,16.23
2019-03-19T14:12:42.679Z,8.27
2019-03-19T14:15:15.255Z,16.00
2019-03-19T14:17:43.510Z,11.60
2019-03-19T14:20:14.879Z,7.47
2019-03-19T14:22:45.153Z,8.90
2019-03-19T14:25:14.411Z,9.23
2019-03-19T14:27:42.835Z,8.93
2019-03-19T14:30:21.923Z,6.17
2019-03-19T14:32:50.183Z,6.87
2019-03-19T14:35:18.444Z,6.67
2019-03-19T14:37:46.702Z,10.73
2019-03-19T14:40:18.910Z,6.63
2019-03-19T14:42:47.167Z,5.63
2019-03-19T14:45:16.293Z,7.27
2019-03-19T14:47:44.614Z,8.60
2019-03-19T14:50:19.374Z,9.23
2019-03-19T14:52:47.622Z,9.43
2019-03-19T14:55:15.899Z,14.20
2019-03-19T14:57:44.226Z,11.30
2019-03-19T15:00:19.212Z,12.93
2019-03-19T15:02:47.472Z,12.23
2019-03-19T15:05:15.804Z,12.13
2019-03-19T15:07:44.072Z,9.10
2019-03-19T15:10:15.586Z,7.67
2019-03-19T15:12:43.939Z,8.30
2019-03-19T15:15:14.321Z,6.57
2019-03-19T15:17:42.606Z,6.80
2019-03-19T15:20:13.406Z,6.40
2019-03-19T15:22:41.680Z,8.33
2019-03-19T15:25:09.952Z,5.87
2019-03-19T15:27:38.282Z,5.10
2019-03-19T15:30:09.282Z,5.93
2019-03-19T15:32:37.550Z,6.93
2019-03-19T15:35:08.158Z,11.00
2019-03-19T15:37:36.948Z,9.37
2019-03-19T15:40:13.866Z,11.23
2019-03-19T15:42:42.840Z,8.47
2019-03-19T15:45:22.634Z,9.20
2019-03-19T15:47:51.773Z,8.33
2019-03-19T15:50:20.369Z,6.57
2019-03-19T15:52:48.884Z,7.23
2019-03-19T15:55:17.147Z,5.93
2019-03-19T15:57:45.436Z,5.90
2019-03-19T16:00:20.634Z,8.20
2019-03-19T16:02:48.907Z,7.17
2019-03-19T16:05:17.164Z,6.07
2019-03-19T16:07:45.440Z,8.20
2019-03-19T16:10:15.691Z,7.10
2019-03-19T16:12:43.969Z,5.80
2019-03-19T16:15:21.035Z,11.47
2019-03-19T16:17:49.312Z,5.03
2019-03-19T16:20:19.566Z,5.60
2019-03-19T16:22:47.845Z,5.63
2019-03-19T16:25:16.100Z,7.23
2019-03-19T16:27:44.375Z,3.53
2019-03-19T16:30:14.270Z,6.00
2019-03-19T16:32:42.545Z,5.23
2019-03-19T16:35:11.599Z,5.10
2019-03-19T16:37:39.883Z,5.10
2019-03-19T16:40:14.347Z,6.07
2019-03-19T16:42:42.601Z,5.03
2019-03-19T16:45:11.422Z,7.43
2019-03-19T16:47:39.688Z,5.33
2019-03-19T16:50:11.258Z,6.00
2019-03-19T16:52:39.523Z,5.10
2019-03-19T16:55:10.350Z,5.80
2019-03-19T16:57:38.615Z,9.13
2019-03-19T17:00:10.235Z,5.20
2019-03-19T17:02:38.496Z,7.10
2019-03-19T17:05:08.603Z,5.53
2019-03-19T17:07:36.863Z,5.83
2019-03-19T17:10:23.262Z,5.07
2019-03-19T17:12:51.523Z,3.73
2019-03-19T17:15:19.787Z,11.67
2019-03-19T17:17:48.044Z,6.50
2019-03-19T17:20:19.838Z,9.43
2019-03-19T17:22:48.100Z,3.93
2019-03-19T17:25:23.181Z,5.27
2019-03-19T17:27:51.443Z,6.13
2019-03-19T17:30:27.865Z,4.50
2019-03-19T17:32:56.123Z,5.30
2019-03-19T17:35:24.391Z,6.53
2019-03-19T17:37:52.913Z,2.77
2019-03-19T17:40:21.170Z,6.43
2019-03-19T17:42:49.422Z,5.20
2019-03-19T17:45:17.709Z,8.10
2019-03-19T17:47:45.967Z,9.00
2019-03-19T17:50:18.856Z,7.40
2019-03-19T17:52:49.069Z,5.13
2019-03-19T17:55:17.359Z,8.77
2019-03-19T17:57:45.616Z,10.53
2019-03-19T18:00:19.838Z,9.37
2019-03-19T18:02:48.099Z,4.03
2019-03-19T18:05:16.376Z,10.93
2019-03-19T18:07:45.144Z,10.67
2019-03-19T18:10:13.817Z,7.10
2019-03-19T18:12:42.079Z,6.97
2019-03-19T18:15:15.299Z,5.23
2019-03-19T18:17:43.572Z,5.40
2019-03-19T18:20:15.794Z,3.20
2019-03-19T18:22:44.073Z,12.00
2019-03-19T18:25:13.766Z,3.63
2019-03-19T18:27:42.032Z,3.60
2019-03-19T18:30:21.722Z,6.40
2019-03-19T18:32:49.975Z,3.47
2019-03-19T18:35:18.238Z,52.33
2019-03-19T18:37:46.510Z,8.63
2019-03-19T18:40:16.879Z,4.53
2019-03-19T18:42:45.149Z,4.43
2019-03-19T18:45:17.192Z,12.10
2019-03-19T18:47:45.471Z,10.97
2019-03-19T18:50:17.666Z,25.03
2019-03-19T18:52:45.934Z,19.50
2019-03-19T18:55:14.191Z,15.77
2019-03-19T18:57:42.631Z,7.50
2019-03-19T19:00:18.511Z,9.87
2019-03-19T19:02:49.998Z,10.93
2019-03-19T19:05:23.349Z,8.63
2019-03-19T19:07:51.615Z,10.77
2019-03-19T19:10:21.476Z,6.50
2019-03-19T19:12:49.870Z,12.03
2019-03-19T19:15:24.470Z,10.50
2019-03-19T19:17:52.757Z,11.90
2019-03-19T19:20:21.087Z,12.70
2019-03-19T19:22:49.357Z,8.27
2019-03-19T19:25:21.543Z,7.67
2019-03-19T19:27:49.800Z,8.77
2019-03-19T19:30:21.826Z,14.33
2019-03-19T19:33:00.473Z,7.93
2019-03-19T19:35:20.069Z,9.30
2019-03-19T19:37:48.349Z,7.67
2019-03-19T19:40:17.420Z,7.60
2019-03-19T19:42:45.794Z,9.10
2019-03-19T19:45:17.527Z,7.77
2019-03-19T19:47:45.798Z,9.47
2019-03-19T19:50:17.931Z,11.63
2019-03-19T19:52:46.207Z,16.53
2019-03-19T19:55:14.744Z,10.27
2019-03-19T19:57:43.275Z,8.50
2019-03-19T20:00:16.407Z,12.83
2019-03-19T20:02:44.902Z,9.37
2019-03-19T20:05:13.345Z,9.30
2019-03-19T20:07:41.609Z,11.27
2019-03-19T20:10:15.342Z,7.07
2019-03-19T20:12:43.608Z,13.77
2019-03-19T20:15:20.391Z,11.67
2019-03-19T20:17:48.657Z,8.70
2019-03-19T20:20:22.190Z,8.17
2019-03-19T20:22:50.451Z,8.70
2019-03-19T20:25:18.919Z,7.00
2019-03-19T20:27:47.175Z,7.80
2019-03-19T20:30:24.094Z,9.47
2019-03-19T20:32:52.390Z,9.70
2019-03-19T20:35:20.735Z,6.27
2019-03-19T20:37:48.986Z,9.00
2019-03-19T20:40:17.505Z,8.17
2019-03-19T20:42:45.767Z,9.43
2019-03-19T20:45:18.803Z,8.87
2019-03-19T20:47:47.054Z,7.80
2019-03-19T20:50:38.111Z,7.90
2019-03-19T20:53:06.363Z,7.13
2019-03-19T20:55:34.630Z,7.23
2019-03-19T20:58:02.921Z,4.77
2019-03-19T21:00:31.229Z,5.87
2019-03-19T21:02:59.491Z,5.40
2019-03-19T21:05:27.764Z,7.07
2019-03-19T21:07:56.027Z,5.00
2019-03-19T21:10:25.046Z,8.80
2019-03-19T21:12:53.334Z,6.57
2019-03-19T21:15:32.217Z,8.20
2019-03-19T21:18:00.480Z,6.27
2019-03-19T21:20:28.752Z,10.20
2019-03-19T21:22:57.018Z,8.27
2019-03-19T21:25:25.278Z,7.77
2019-03-19T21:27:53.543Z,11.63
2019-03-19T21:30:24.006Z,11.37
2019-03-19T21:32:52.291Z,16.33
2019-03-19T21:35:21.586Z,11.60
2019-03-19T21:37:50.027Z,9.50
2019-03-19T21:40:18.435Z,11.03
2019-03-19T21:42:46.700Z,8.40
2019-03-19T21:45:19.139Z,10.90
2019-03-19T21:47:47.413Z,11.60
2019-03-19T21:50:21.765Z,10.03
2019-03-19T21:52:50.345Z,8.17
2019-03-19T21:55:18.667Z,9.73
2019-03-19T21:57:46.933Z,6.03
2019-03-19T22:00:24.112Z,6.80
2019-03-19T22:02:52.382Z,8.53
2019-03-19T22:05:20.642Z,23.00
2019-03-19T22:07:48.918Z,9.83
2019-03-19T22:10:21.767Z,8.40
2019-03-19T22:12:50.034Z,6.90
2019-03-19T22:15:19.732Z,6.83
2019-03-19T22:17:48.006Z,5.50
2019-03-19T22:20:16.265Z,7.00
2019-03-19T22:22:44.539Z,6.40
2019-03-19T22:25:14.995Z,8.20
2019-03-19T22:27:43.270Z,6.10
2019-03-19T22:30:13.864Z,5.77
2019-03-19T22:32:42.128Z,4.80
2019-03-19T22:35:10.395Z,4.40
2019-03-19T22:37:39.319Z,5.33
2019-03-19T22:40:10.842Z,7.60
2019-03-19T22:42:39.127Z,6.17
2019-03-19T22:45:20.005Z,4.73
2019-03-19T22:47:48.319Z,5.93
2019-03-19T22:50:17.381Z,6.07
2019-03-19T22:52:45.737Z,4.40
2019-03-19T22:55:14.746Z,5.53
2019-03-19T22:57:43.026Z,6.53
2019-03-19T23:00:39.043Z,5.83
2019-03-19T23:03:07.822Z,4.57
2019-03-19T23:05:36.079Z,6.73
2019-03-19T23:08:04.514Z,5.00
2019-03-19T23:10:32.774Z,7.70
2019-03-19T23:13:01.032Z,5.83
2019-03-19T23:15:29.307Z,4.13
2019-03-19T23:17:57.557Z,4.80
2019-03-19T23:20:25.821Z,5.23
2019-03-19T23:22:54.086Z,3.30
2019-03-19T23:25:22.359Z,4.13
2019-03-19T23:27:50.614Z,4.43
2019-03-19T23:30:21.472Z,4.43
2019-03-19T23:32:49.726Z,4.07
2019-03-19T23:35:18.003Z,4.17
2019-03-19T23:37:46.253Z,5.53
2019-03-19T23:40:16.414Z,4.20
2019-03-19T23:42:44.747Z,3.30
2019-03-19T23:45:13.454Z,4.53
2019-03-19T23:47:41.792Z,4.43
2019-03-19T23:50:17.034Z,4.13
2019-03-19T23:52:45.296Z,3.27
2019-03-19T23:55:13.572Z,3.93
2019-03-19T23:57:41.827Z,4.27
